TimeIST,TemperatureF,Dew PointF,Humidity,Sea Level PressureIn,VisibilityMPH,Wind Direction,Wind SpeedMPH,Gust SpeedMPH,PrecipitationIn,Events,Conditions,WindDirDegrees,DateUTC
12:00 AM,53.6,46.4,77,30.12,1.6,Variable,3.5,-,N/A,,Partly Cloudy,0,2013-01-18 18:30:00
1:00 AM,51.8,46.4,82,30.12,1.6,NNW,5.8,-,N/A,,Partly Cloudy,340,2013-01-18 19:30:00
2:00 AM,51.8,46.4,82,30.12,1.6,Variable,6.9,-,N/A,,Partly Cloudy,0,2013-01-18 20:30:00
2:30 AM,53,47,74,30.12,1,NW,2.3,,,,Mist,320,2013-01-18 21:00:00
3:00 AM,51.8,44.6,76,30.12,1.6,Variable,1.2,-,N/A,,Partly Cloudy,0,2013-01-18 21:30:00
5:00 AM,44.6,42.8,93,30.12,1.6,Calm,Calm,-,N/A,,Partly Cloudy,0,2013-01-18 23:30:00
8:00 AM,44.6,42.8,93,30.18,0.3,Calm,Calm,-,N/A,Fog,Fog,0,2013-01-19 02:30:00
8:30 AM,48,46,92,30.21,0,Calm,Calm,,,Fog,Partial Fog,,2013-01-19 03:00:00
11:30 AM,63,42,34,30.20,2,WNW,5.8,,,,Haze,290,2013-01-19 06:00:00
12:30 PM,64.4,35.6,34,30.18,2.5,NW,5.8,-,N/A,,Haze,310,2013-01-19 07:00:00
1:00 PM,64.4,35.6,34,30.18,2.5,Variable,4.6,-,N/A,,Haze,0,2013-01-19 07:30:00
2:30 PM,66,33,18,30.12,2,NNE,4.6,,,,,20,2013-01-19 09:00:00
2:30 PM,64.4,32.0,30,30.15,3.7,Variable,5.8,-,N/A,,Unknown,0,2013-01-19 09:00:00
3:00 PM,64.4,33.8,32,30.12,3.7,Variable,6.9,-,N/A,,Unknown,0,2013-01-19 09:30:00
4:00 PM,66.2,33.8,30,30.12,3.7,Variable,6.9,-,N/A,,Unknown,0,2013-01-19 10:30:00
4:30 PM,64.4,32.0,30,30.12,3.7,Variable,6.9,-,N/A,,Unknown,0,2013-01-19 11:00:00
5:00 PM,64.4,33.8,32,30.12,3.7,Variable,4.6,-,N/A,,Unknown,0,2013-01-19 11:30:00
5:30 PM,62.6,33.8,34,30.12,3.7,NNW,4.6,-,N/A,,Unknown,330,2013-01-19 12:00:00
7:00 PM,60.8,35.6,39,30.15,2.5,Variable,3.5,-,N/A,,Haze,0,2013-01-19 13:30:00
8:00 PM,59.0,39.2,48,30.18,2.2,NNW,3.5,-,N/A,,Haze,330,2013-01-19 14:30:00
8:30 PM,58,42,43,30.16,1,NNW,3.5,,,,Haze,340,2013-01-19 15:00:00
9:00 PM,57.2,41.0,55,30.18,1.2,Variable,2.3,-,N/A,,Smoke,0,2013-01-19 15:30:00
10:00 PM,53.6,41.0,62,30.21,1.2,Variable,2.3,-,N/A,,Smoke,0,2013-01-19 16:30:00
11:00 PM,55.4,39.2,54,30.18,1.2,Variable,3.5,-,N/A,,Smoke,0,2013-01-19 17:30:00
11:30 PM,54,37,41,30.18,1,South,3.5,,,,Smoke,180,2013-01-19 18:00:00